Time;durP1;ratioP1;P1;durP2;ratioP2;P2;SDS_P1;SDS_P2;PMS_P1;PMS_P2;Temp;Humidity;BMP_temperature;BMP_pressure;BME280_temperature;BME280_humidity;BME280_pressure;Samples;Min_cycle;Max_cycle;Signal;HPM_P1;HPM_P2
2020/12/01 00:00:17;;;;;;;18.65;6.07;;;9.90;99.90;;;9.39;80.95;101219.34;5074258;28;20143;-70
2020/12/01 00:02:44;;;;;;;20.35;5.53;;;9.80;99.90;;;9.50;80.96;101272.25;5074831;28;20048;-70
2020/12/01 00:05:16;;;;;;;21.75;5.60;;;9.50;99.90;;;9.24;81.17;101227.19;5074388;28;20045;-70
2020/12/01 00:07:43;;;;;;;25.38;5.97;;;9.40;99.90;;;9.45;81.91;101260.75;5074431;28;20119;-70
2020/12/01 00:10:13;;;;;;;26.55;5.95;;;9.40;99.90;;;9.59;81.16;101265.25;5074627;28;20040;-70
2020/12/01 00:12:43;;;;;;;22.10;5.88;;;9.50;99.90;;;9.55;79.74;101266.13;5074382;28;20052;-70
2020/12/01 00:15:13;;;;;;;16.65;5.13;;;9.50;99.90;;;9.59;78.73;101262.63;5074265;28;20045;-70
2020/12/01 00:17:40;;;;;;;22.42;5.72;;;9.50;99.90;;;9.79;77.99;101268.00;5074303;28;20048;-70
2020/12/01 00:20:09;;;;;;;20.08;6.28;;;9.70;99.90;;;9.84;77.74;101255.69;5074159;28;20453;-70
2020/12/01 00:22:37;;;;;;;34.08;7.50;;;9.90;99.90;;;9.61;78.70;101234.47;5074120;28;20432;-70
2020/12/01 00:25:06;;;;;;;32.97;7.93;;;9.80;99.90;;;9.53;78.91;101208.88;5074093;28;20045;-70
2020/12/01 00:27:34;;;;;;;31.88;7.88;;;9.80;99.90;;;9.31;79.13;101163.00;5073679;28;20448;-70
2020/12/01 00:30:10;;;;;;;34.80;6.82;;;9.90;99.90;;;9.86;80.05;101275.09;5073952;28;20068;-70
2020/12/01 00:32:38;;;;;;;35.15;8.02;;;9.80;99.90;;;10.02;79.77;101261.06;5073576;28;20046;-70
2020/12/01 00:35:07;;;;;;;28.15;7.18;;;10.00;99.90;;;10.19;79.67;101274.38;5073838;28;20044;-70
2020/12/01 00:37:36;;;;;;;34.75;7.25;;;10.10;99.90;;;9.55;79.31;101180.72;5074142;28;20048;-70
2020/12/01 00:40:05;;;;;;;33.70;8.82;;;10.10;99.90;;;10.22;79.34;101263.84;5072466;28;20072;-70
2020/12/01 00:42:32;;;;;;;31.48;6.35;;;10.20;99.90;;;10.15;79.89;101273.47;5073935;28;20102;-70
2020/12/01 00:45:00;;;;;;;35.53;7.55;;;10.20;99.90;;;10.24;79.83;101284.09;5073673;28;20131;-70
2020/12/01 00:47:28;;;;;;;30.50;7.13;;;10.20;99.90;;;10.29;79.07;101281.47;5072220;28;20494;-70
2020/12/01 00:49:56;;;;;;;37.75;7.07;;;10.20;99.90;;;10.17;79.39;101278.78;5089122;28;20036;-69
2020/12/01 00:52:23;;;;;;;32.60;7.88;;;10.20;99.90;;;10.20;79.05;101268.22;5088800;28;20151;-69
2020/12/01 00:54:51;;;;;;;29.50;6.93;;;10.20;99.90;;;10.14;79.37;101276.13;5071547;28;20052;-69
2020/12/01 00:57:18;;;;;;;30.48;7.65;;;10.10;99.90;;;10.14;79.11;101244.41;5071773;28;20068;-70
2020/12/01 00:59:46;;;;;;;24.42;7.25;;;10.30;99.90;;;9.97;79.14;101237.25;5073531;28;20041;-69
2020/12/01 01:02:23;;;;;;;33.05;7.05;;;10.20;99.90;;;10.24;79.71;101262.06;5105948;28;20044;-70
2020/12/01 01:04:51;;;;;;;35.80;7.38;;;10.20;99.90;;;10.03;79.77;101212.63;5072315;28;20064;-70
2020/12/01 01:07:20;;;;;;;33.28;7.50;;;10.30;99.90;;;10.07;80.07;101272.53;5073198;28;20082;-70
2020/12/01 01:09:48;;;;;;;29.17;7.75;;;10.20;99.90;;;10.19;80.01;101274.38;5073236;28;20040;-69
2020/12/01 01:12:15;;;;;;;27.75;7.20;;;10.10;99.90;;;10.29;79.35;101266.50;5072765;28;20079;-70
2020/12/01 01:14:43;;;;;;;31.38;6.68;;;10.20;99.90;;;10.26;79.10;101270.91;5072679;28;20055;-69
2020/12/01 01:17:10;;;;;;;30.15;7.28;;;10.30;99.90;;;10.27;79.66;101276.19;5071618;28;20040;-69
2020/12/01 01:19:37;;;;;;;21.92;6.60;;;10.20;99.90;;;10.16;79.47;101251.47;5071691;28;20054;-70
2020/12/01 01:22:06;;;;;;;26.00;7.15;;;10.20;99.90;;;10.21;79.89;101277.91;5072831;28;20051;-69
2020/12/01 01:24:33;;;;;;;20.27;5.70;;;10.20;99.90;;;10.20;79.16;101279.66;5072461;28;20079;-69
2020/12/01 01:27:00;;;;;;;21.95;5.65;;;10.20;99.90;;;10.21;78.86;101283.19;5072531;28;20119;-69
2020/12/01 01:29:28;;;;;;;14.70;4.93;;;10.20;99.90;;;10.10;79.47;101295.50;5088130;28;20126;-69
2020/12/01 01:31:56;;;;;;;19.02;5.75;;;10.10;99.90;;;10.27;79.40;101294.69;5072513;28;20044;-69
2020/12/01 01:34:24;;;;;;;19.15;5.18;;;10.20;99.90;;;9.99;80.29;101287.47;5072706;28;20114;-69
2020/12/01 01:36:52;;;;;;;18.42;5.38;;;10.10;99.90;;;9.44;80.66;101172.78;5072393;28;20119;-69
2020/12/01 01:39:20;;;;;;;19.83;5.30;;;10.00;99.90;;;9.94;81.21;101282.19;5072628;28;20048;-69
2020/12/01 01:41:48;;;;;;;26.23;6.53;;;10.00;99.90;;;9.93;81.90;101271.59;5072646;28;20044;-69
2020/12/01 01:44:23;;;;;;;23.85;5.88;;;9.90;99.90;;;9.98;82.14;101278.69;5072608;28;20048;-70
2020/12/01 01:46:54;;;;;;;24.20;5.55;;;9.90;99.90;;;9.61;82.63;101226.53;5072600;28;20046;-69
2020/12/01 01:49:29;;;;;;;;;;;9.90;99.90;;;9.96;82.39;101280.44;5073012;28;20054;-69
2020/12/01 01:51:58;;;;;;;21.73;6.30;;;9.90;99.90;;;10.00;82.51;101287.50;5071236;28;20365;-69
2020/12/01 01:54:27;;;;;;;19.15;5.93;;;10.00;99.90;;;10.10;83.44;101290.22;5072116;28;20040;-69
2020/12/01 01:57:00;;;;;;;18.27;4.88;;;10.00;99.90;;;9.85;84.75;101291.81;5072438;28;20048;-69
2020/12/01 01:59:30;;;;;;;17.38;4.78;;;9.80;99.90;;;9.84;84.35;101274.19;5071150;28;20071;-70
2020/12/01 02:02:00;;;;;;;16.13;4.72;;;9.90;99.90;;;9.93;84.15;101290.97;5072697;28;20051;-69
2020/12/01 02:04:30;;;;;;;15.45;4.70;;;9.90;99.90;;;9.66;85.41;101293.47;5072107;28;20067;-70
2020/12/01 02:07:01;;;;;;;;;;;9.70;99.90;;;9.75;86.30;101288.25;5072254;28;20068;-69
2020/12/01 02:09:33;;;;;;;18.52;5.45;;;9.70;99.90;;;9.76;86.30;101287.38;5072368;28;19924;-69
2020/12/01 02:12:04;;;;;;;24.58;5.55;;;9.70;99.90;;;9.83;85.74;101285.66;5071646;28;20490;-69
2020/12/01 02:14:33;;;;;;;;;;;9.70;99.90;;;9.47;86.48;101236.13;5072403;28;20044;-69
2020/12/01 02:17:17;;;;;;;26.23;6.07;;;9.70;99.90;;;9.63;86.52;101276.72;5072293;28;20020;-69
2020/12/01 02:19:46;;;;;;;29.10;6.55;;;9.60;99.90;;;9.76;86.66;101274.16;5072013;28;20052;-69
2020/12/01 02:22:21;;;;;;;24.00;6.30;;;9.70;99.90;;;9.97;86.82;101273.38;5072184;28;20044;-69
2020/12/01 02:24:51;;;;;;;29.40;6.78;;;9.80;99.90;;;9.91;86.02;101239.88;5072173;28;20036;-69
2020/12/01 02:27:24;;;;;;;28.08;7.15;;;10.00;99.90;;;10.35;85.76;101297.34;5072207;28;20044;-69
2020/12/01 02:30:01;;;;;;;29.38;7.80;;;10.20;99.90;;;10.46;85.91;101290.31;5071853;28;20049;-70
2020/12/01 02:32:29;;;;;;;22.58;5.57;;;10.40;99.90;;;10.41;85.94;101278.88;5071864;28;20094;-70
2020/12/01 02:35:00;;;;;;;24.95;6.40;;;10.40;99.90;;;10.10;86.36;101280.53;5071916;28;20493;-70
2020/12/01 02:37:29;;;;;;;24.55;6.53;;;10.20;99.90;;;9.86;88.11;101265.41;5072047;28;20054;-70
2020/12/01 02:40:01;;;;;;;26.95;6.47;;;10.00;99.90;;;10.07;88.20;101269.88;5087501;28;20083;-71
2020/12/01 02:42:29;;;;;;;31.38;6.70;;;10.00;99.90;;;9.53;87.68;101180.72;5071609;28;20083;-70
2020/12/01 02:44:58;;;;;;;26.23;6.10;;;10.00;99.90;;;9.82;87.70;101236.31;5071905;28;20040;-70
2020/12/01 02:47:40;;;;;;;31.48;7.57;;;10.00;99.90;;;10.07;87.14;101245.22;5071671;28;20124;-70
2020/12/01 02:50:09;;;;;;;30.00;6.60;;;10.20;99.90;;;10.17;86.72;101273.47;5071656;28;20044;-70
2020/12/01 02:52:37;;;;;;;21.83;6.30;;;10.20;99.90;;;10.26;86.28;101284.13;5071585;28;20505;-70
2020/12/01 02:55:05;;;;;;;27.95;6.72;;;10.20;99.90;;;9.81;85.94;101190.50;5071526;28;20067;-70
2020/12/01 02:57:34;;;;;;;27.55;7.53;;;10.30;99.90;;;10.40;85.54;101274.44;5071333;28;20498;-70
2020/12/01 03:00:06;;;;;;;24.45;6.38;;;10.40;99.90;;;10.33;86.01;101280.59;5071516;28;20482;-70
2020/12/01 03:02:33;;;;;;;32.13;5.97;;;10.30;99.90;;;9.71;86.25;101174.63;5071893;28;20103;-70
2020/12/01 03:05:02;;;;;;;25.48;6.63;;;10.30;99.90;;;10.30;86.61;101265.59;5071740;28;20401;-70
2020/12/01 03:07:29;;;;;;;30.80;7.40;;;10.30;99.90;;;10.38;86.61;101289.41;5071487;28;20048;-70
2020/12/01 03:09:59;;;;;;;19.95;6.43;;;10.30;99.90;;;10.32;87.37;101286.75;5071408;28;20036;-70
2020/12/01 03:12:30;;;;;;;21.70;6.10;;;10.30;99.90;;;10.12;87.67;101262.91;5071762;28;20760;-70
2020/12/01 03:15:01;;;;;;;21.20;5.95;;;10.30;99.90;;;10.37;87.35;101277.09;5071391;28;20119;-70
2020/12/01 03:17:28;;;;;;;19.70;6.43;;;10.30;99.90;;;10.36;87.08;101262.97;5071495;28;20555;-70
2020/12/01 03:19:56;;;;;;;27.30;6.47;;;10.40;99.90;;;9.86;87.51;101186.16;5072863;28;20051;-70
2020/12/01 03:22:23;;;;;;;26.40;6.50;;;10.30;99.90;;;10.30;87.40;101272.66;5074946;28;20085;-70
2020/12/01 03:24:50;;;;;;;21.38;6.50;;;10.30;99.90;;;10.22;87.60;101279.69;5074843;28;20098;-70
2020/12/01 03:27:18;;;;;;;23.35;5.88;;;10.30;99.90;;;10.13;87.68;101250.56;5090719;28;20086;-70
2020/12/01 03:29:45;;;;;;;22.63;5.63;;;10.30;99.90;;;10.23;87.91;101260.28;5075093;28;20040;-70
2020/12/01 03:32:14;;;;;;;20.77;5.43;;;10.30;99.90;;;10.17;87.87;101255.88;5074729;28;20504;-70
2020/12/01 03:34:41;;;;;;;20.70;6.13;;;10.30;99.90;;;10.12;88.55;101273.50;5074654;28;20036;-70
2020/12/01 03:37:09;;;;;;;18.88;5.75;;;10.20;99.90;;;10.29;88.58;101277.06;5073623;28;20528;-70
2020/12/01 03:39:36;;;;;;;26.58;6.80;;;10.30;99.90;;;10.22;88.79;101263.84;5073532;28;20098;-70
2020/12/01 03:42:04;;;;;;;25.85;6.15;;;10.30;99.90;;;10.00;89.18;101221.44;5074997;28;20058;-70
2020/12/01 03:44:32;;;;;;;26.70;6.82;;;10.30;99.90;;;9.79;89.80;101210.75;5074506;28;20037;-70
2020/12/01 03:46:59;;;;;;;22.85;6.60;;;10.20;99.90;;;10.14;90.32;101255.88;5074748;28;20045;-70
2020/12/01 03:49:27;;;;;;;27.75;6.35;;;10.20;99.90;;;10.09;90.87;101269.88;5074412;28;20124;-70
2020/12/01 03:51:55;;;;;;;18.77;5.72;;;10.10;99.90;;;9.83;91.44;101238.94;5074423;28;20131;-70
2020/12/01 03:54:22;;;;;;;13.80;5.20;;;9.90;99.90;;;10.06;91.73;101261.97;5074587;28;20164;-70
2020/12/01 03:56:50;;;;;;;29.05;6.35;;;10.00;99.90;;;10.20;91.14;101265.59;5074159;28;20055;-70
2020/12/01 03:59:17;;;;;;;21.05;5.63;;;10.10;99.90;;;10.15;91.09;101265.56;5074538;28;20040;-70
2020/12/01 04:01:45;;;;;;;25.75;7.15;;;10.20;99.90;;;10.07;91.07;101247.84;5073163;28;20048;-70
2020/12/01 04:04:12;;;;;;;22.88;6.43;;;10.10;99.90;;;10.22;90.73;101269.13;5074163;28;20045;-70
2020/12/01 04:06:40;;;;;;;18.70;5.78;;;10.20;99.90;;;10.10;90.75;101251.44;5074396;28;20032;-70
2020/12/01 04:09:08;;;;;;;23.05;6.05;;;10.20;99.90;;;10.16;90.29;101263.81;5074393;28;20049;-70
2020/12/01 04:11:35;;;;;;;25.50;6.50;;;10.30;99.90;;;10.17;90.16;101244.41;5073996;28;20467;-69
2020/12/01 04:14:03;;;;;;;25.02;6.00;;;10.30;99.90;;;10.27;90.07;101256.78;5073915;28;20064;-70
2020/12/01 04:16:30;;;;;;;30.02;6.57;;;10.40;99.90;;;10.36;90.17;101270.91;5074451;28;20040;-70
2020/12/01 04:18:57;;;;;;;29.13;7.97;;;10.40;99.90;;;10.41;89.77;101292.09;5073847;28;20048;-69
2020/12/01 04:21:25;;;;;;;30.25;8.30;;;10.50;99.90;;;10.55;90.03;101285.09;5074139;28;20055;-70
2020/12/01 04:23:53;;;;;;;29.85;7.75;;;10.50;99.90;;;10.41;89.90;101271.81;5074026;28;20051;-70
2020/12/01 04:26:22;;;;;;;23.80;6.50;;;10.50;99.90;;;10.25;89.54;101253.25;5073726;28;20041;-70
2020/12/01 04:28:51;;;;;;;29.00;7.35;;;10.40;99.90;;;10.29;89.53;101282.34;5073725;28;20045;-70
2020/12/01 04:31:18;;;;;;;30.05;6.82;;;10.40;99.90;;;10.14;90.39;101257.63;5073906;28;20049;-70
2020/12/01 04:33:46;;;;;;;31.15;6.82;;;10.30;99.90;;;10.12;90.29;101252.34;5072465;28;20102;-70
2020/12/01 04:36:13;;;;;;;25.30;5.65;;;10.30;99.90;;;10.43;89.84;101295.63;5073531;28;20048;-70
2020/12/01 04:38:41;;;;;;;32.65;7.22;;;10.40;99.90;;;10.40;89.70;101300.88;5089327;28;20456;-70
2020/12/01 04:41:11;;;;;;;34.17;7.90;;;10.50;99.90;;;10.50;89.98;101289.47;5073773;28;20131;-70
2020/12/01 04:43:42;;;;;;;27.55;7.68;;;10.50;99.90;;;10.40;89.88;101291.19;5073687;28;20079;-70
2020/12/01 04:46:15;;;;;;;34.35;8.68;;;10.40;99.90;;;10.45;89.79;101307.09;5073633;28;20048;-70
2020/12/01 04:48:47;;;;;;;46.35;9.77;;;10.40;99.90;;;10.33;89.26;101284.13;5073233;28;20048;-70
2020/12/01 04:51:47;;;;;;;44.88;9.52;;;10.40;99.90;;;10.07;89.26;101237.28;5073303;28;20037;-70
2020/12/01 04:55:08;;;;;;;35.05;8.90;;;10.50;99.90;;;10.48;88.34;101315.00;5073333;28;20048;-70
2020/12/01 04:57:59;;;;;;;35.97;8.30;;;10.50;99.90;;;10.40;88.58;101316.75;5073172;28;20041;-70
2020/12/01 05:00:36;;;;;;;40.20;8.10;;;10.40;99.90;;;10.46;88.53;101322.06;5073137;28;20040;-73
2020/12/01 05:03:28;;;;;;;34.50;8.13;;;10.50;99.90;;;10.29;88.28;101281.47;5073047;28;20500;-71
2020/12/01 05:06:34;;;;;;;34.80;8.27;;;10.30;99.90;;;10.38;88.62;101332.63;5072907;28;20106;-68
2020/12/01 05:09:07;;;;;;;39.83;7.85;;;10.40;99.90;;;10.43;88.29;101349.38;5072971;28;20036;-81
2020/12/01 05:11:46;;;;;;;43.42;9.45;;;10.40;99.90;;;10.40;88.27;101335.25;5072710;28;20060;-70
2020/12/01 05:14:26;;;;;;;41.63;9.25;;;10.40;99.90;;;10.42;88.31;101328.22;5072615;28;20141;-70
2020/12/01 05:17:19;;;;;;;39.08;9.55;;;10.40;99.90;;;10.30;88.40;101322.91;5073076;28;20048;-70
2020/12/01 05:19:48;;;;;;;43.28;9.20;;;10.40;99.90;;;10.29;88.48;101334.34;5072499;28;20078;-69
2020/12/01 05:22:18;;;;;;;35.30;8.25;;;10.30;99.90;;;9.66;88.37;101223.91;5072929;28;20120;-69
2020/12/01 05:24:48;;;;;;;32.55;8.50;;;10.30;99.90;;;10.36;87.75;101352.88;5073206;28;20052;-69
2020/12/01 05:27:26;;;;;;;36.72;7.80;;;10.40;99.90;;;10.56;87.01;101358.25;5072657;28;20395;-69
2020/12/01 05:30:04;;;;;;;34.03;8.32;;;10.50;99.90;;;10.31;86.93;101333.47;5072834;28;20105;-69
2020/12/01 05:32:37;;;;;;;38.22;8.00;;;10.50;99.90;;;10.50;86.65;101366.16;5072818;28;20044;-74
2020/12/01 05:35:21;;;;;;;38.15;8.57;;;10.50;99.90;;;10.52;86.28;101364.41;5071389;28;20094;-70
2020/12/01 05:38:01;;;;;;;38.38;8.30;;;10.50;99.90;;;10.50;86.12;101359.13;5072712;28;20375;-71
2020/12/01 05:40:33;;;;;;;38.90;8.18;;;10.60;99.90;;;10.57;85.98;101381.16;5072352;28;20048;-71
2020/12/01 05:43:01;;;;;;;32.60;7.85;;;10.60;99.90;;;10.67;85.48;101381.22;5071845;28;20052;-70
2020/12/01 05:45:35;;;;;;;35.70;7.20;;;10.70;99.90;;;10.65;85.07;101388.25;5072304;28;20040;-70
2020/12/01 05:48:31;;;;;;;38.35;8.57;;;10.70;99.90;;;10.73;84.63;101397.13;5072674;28;20064;-70
2020/12/01 05:51:06;;;;;;;36.58;8.38;;;10.70;99.90;;;10.64;84.91;101369.75;5105048;28;20052;-70
2020/12/01 05:53:33;;;;;;;50.40;9.73;;;10.80;99.90;;;10.72;85.09;101399.75;5072138;28;20482;-70
2020/12/01 05:56:14;;;;;;;43.97;8.20;;;10.70;99.90;;;10.73;85.05;101406.81;5072139;28;20053;-70
2020/12/01 05:58:44;;;;;;;32.85;8.60;;;10.70;99.90;;;10.72;85.05;101392.69;5072521;28;20052;-70
2020/12/01 06:01:13;;;;;;;33.17;8.55;;;10.70;99.90;;;10.46;85.16;101364.38;5088023;28;20460;-71
2020/12/01 06:04:07;;;;;;;42.00;8.20;;;10.70;99.90;;;10.55;85.61;101391.75;5072129;28;20452;-70
2020/12/01 06:06:51;;;;;;;48.38;8.93;;;10.60;99.90;;;10.52;85.95;101393.50;5072099;28;20041;-70
2020/12/01 06:09:37;;;;;;;45.35;9.20;;;10.60;99.90;;;10.62;86.16;101413.81;5072088;28;20570;-70
2020/12/01 06:12:13;;;;;;;40.65;8.77;;;10.60;99.90;;;10.60;86.27;101431.44;5071984;28;20055;-69
2020/12/01 06:14:51;;;;;;;38.33;9.55;;;10.60;99.90;;;10.69;86.22;101427.06;5071965;28;20040;-70
2020/12/01 06:17:27;;;;;;;47.25;9.85;;;10.60;99.90;;;10.77;86.12;101428.00;5071955;28;20040;-70
2020/12/01 06:20:02;;;;;;;48.10;10.13;;;10.70;99.90;;;10.70;85.89;101433.25;5071959;28;20036;-70
2020/12/01 06:23:03;;;;;;;39.38;9.13;;;10.70;99.90;;;10.75;85.39;101445.63;5071977;28;20033;-70
2020/12/01 06:26:07;;;;;;;42.13;9.32;;;10.70;99.90;;;10.63;85.72;101437.63;5072203;28;20109;-70
2020/12/01 06:29:21;;;;;;;45.97;9.65;;;10.70;99.90;;;10.72;85.51;101445.59;5068657;28;20049;-70
2020/12/01 06:32:32;;;;;;;38.55;8.05;;;10.70;99.90;;;10.64;85.17;101444.72;5071854;28;20166;-69
2020/12/01 06:35:30;;;;;;;37.58;9.43;;;10.60;99.90;;;10.68;84.75;101453.53;5062362;28;20061;-70
2020/12/01 06:38:20;;;;;;;46.95;10.38;;;10.60;99.90;;;10.42;85.00;101426.06;5072052;28;20059;-70
2020/12/01 06:40:52;;;;;;;39.78;8.23;;;10.60;99.90;;;10.66;84.83;101458.81;5072257;28;20044;-70
2020/12/01 06:43:26;;;;;;;43.67;8.98;;;10.60;99.90;;;10.62;84.51;101457.03;5071732;28;20436;-70
2020/12/01 06:45:58;;;;;;;42.03;9.75;;;10.70;99.90;;;10.64;84.09;101451.75;5071975;28;20047;-70
2020/12/01 06:48:38;;;;;;;42.90;8.82;;;10.70;99.90;;;10.53;84.26;101435.81;5072001;28;20127;-70
2020/12/01 06:51:12;;;;;;;41.78;9.45;;;10.70;99.90;;;10.75;84.57;101484.44;5071736;28;20054;-70
2020/12/01 06:53:42;;;;;;;50.72;11.80;;;10.70;99.90;;;10.80;84.43;101480.06;5074177;28;20379;-69
2020/12/01 06:56:17;;;;;;;49.63;9.35;;;10.80;99.90;;;10.68;84.03;101457.03;5075716;28;20040;-69
2020/12/01 06:58:46;;;;;;;44.40;9.43;;;10.80;99.90;;;10.97;84.03;101488.06;5075644;28;20055;-70
2020/12/01 07:01:28;;;;;;;44.40;9.52;;;11.00;99.90;;;10.87;83.75;101481.84;5075489;28;20056;-69
2020/12/01 07:04:22;;;;;;;52.40;9.98;;;10.90;99.90;;;10.53;82.79;101412.00;5075658;28;20062;-70
2020/12/01 07:06:57;;;;;;;42.95;8.43;;;11.00;99.90;;;10.89;82.36;101482.72;5075116;28;20421;-70
2020/12/01 07:09:30;;;;;;;47.20;9.23;;;11.00;99.90;;;10.70;81.99;101484.38;5075219;28;20518;-70
2020/12/01 07:12:42;;;;;;;43.25;9.35;;;10.90;99.90;;;10.98;81.93;101509.22;5075286;28;20559;-69
2020/12/01 07:15:17;;;;;;;50.22;9.85;;;10.90;99.90;;;10.99;81.77;101503.06;5070117;28;20052;-69
2020/12/01 07:17:52;;;;;;;49.65;9.60;;;11.00;99.90;;;10.99;81.52;101520.72;5075053;28;20045;-70
2020/12/01 07:20:34;;;;;;;40.90;9.80;;;11.00;99.90;;;10.91;81.24;101510.09;5075383;28;20114;-70
2020/12/01 07:23:23;;;;;;;45.67;8.95;;;10.90;99.90;;;10.79;81.09;101524.16;5075022;28;20033;-70
2020/12/01 07:26:01;;;;;;;40.08;9.45;;;10.80;99.90;;;10.67;80.79;101505.56;5074938;28;20032;-70
2020/12/01 07:28:36;;;;;;;29.92;8.25;;;10.80;99.90;;;10.89;80.47;101536.56;5074896;28;20440;-70
2020/12/01 07:31:20;;;;;;;43.63;8.60;;;10.90;99.90;;;10.92;80.82;101570.06;5075122;28;20503;-70
2020/12/01 07:33:57;;;;;;;31.08;7.97;;;11.00;99.90;;;10.68;81.64;101532.91;5075244;28;20045;-70
2020/12/01 07:36:38;;;;;;;22.40;6.07;;;10.80;99.90;;;10.72;81.11;101554.06;5074992;28;20123;-70
2020/12/01 07:39:18;;;;;;;26.88;6.65;;;10.70;99.90;;;10.66;80.97;101561.13;5075044;28;20044;-70
2020/12/01 07:41:53;;;;;;;27.40;7.28;;;10.70;99.90;;;10.78;80.79;101563.84;5074939;28;20048;-70
2020/12/01 07:44:24;;;;;;;28.55;6.97;;;10.70;99.90;;;10.84;80.44;101563.84;5074896;28;20128;-70
2020/12/01 07:47:07;;;;;;;27.33;6.63;;;10.80;99.90;;;10.77;80.00;101552.38;5074506;28;20040;-70
2020/12/01 07:49:35;;;;;;;22.85;6.72;;;10.80;99.90;;;10.89;80.00;101559.47;5073343;28;20102;-70
2020/12/01 07:52:18;;;;;;;29.08;7.95;;;10.80;99.90;;;10.36;79.75;101470.97;5074679;28;20036;-70
2020/12/01 07:54:57;;;;;;;38.10;8.23;;;10.90;99.90;;;10.82;80.03;101568.25;5074607;28;20040;-70
2020/12/01 07:57:24;;;;;;;33.50;8.77;;;10.90;99.90;;;10.90;80.57;101579.75;5074408;28;20374;-69
2020/12/01 07:59:52;;;;;;;32.88;8.75;;;10.90;99.90;;;10.96;80.34;101590.38;5074559;28;20444;-70
2020/12/01 08:02:26;;;;;;;32.28;7.75;;;10.90;99.90;;;10.88;79.99;101589.44;5074543;28;20098;-69
2020/12/01 08:05:11;;;;;;;37.70;8.68;;;10.90;99.90;;;10.83;79.54;101580.63;5074153;28;20485;-70
2020/12/01 08:07:39;;;;;;;40.33;8.43;;;10.90;99.90;;;10.94;79.13;101589.50;5074189;28;20044;-69
2020/12/01 08:10:09;;;;;;;28.92;7.38;;;10.90;99.90;;;10.98;78.60;101587.75;5074582;28;20037;-70
2020/12/01 08:12:42;;;;;;;30.80;7.93;;;10.90;99.90;;;11.00;78.40;101588.63;5074265;28;20493;-69
2020/12/01 08:15:15;;;;;;;39.22;8.20;;;11.00;99.90;;;10.85;77.70;101594.75;5089886;28;20140;-70
2020/12/01 08:17:43;;;;;;;28.80;8.02;;;10.90;99.90;;;10.94;77.25;101586.84;5073947;28;20502;-69
2020/12/01 08:20:15;;;;;;;38.97;8.90;;;11.00;99.90;;;10.93;76.96;101594.78;5074147;28;20093;-70
2020/12/01 08:22:54;;;;;;;34.25;7.60;;;11.00;99.90;;;10.99;76.88;101611.59;5073921;28;20051;-70
2020/12/01 08:25:28;;;;;;;40.03;7.95;;;11.00;99.90;;;10.36;76.47;101492.13;5072798;28;20058;-70
2020/12/01 08:28:06;;;;;;;27.67;7.32;;;11.10;99.90;;;11.02;77.00;101606.31;5073874;28;20039;-70
2020/12/01 08:30:58;;;;;;;38.97;7.75;;;11.00;99.90;;;10.96;76.63;101589.50;5074060;28;20123;-70
2020/12/01 08:33:42;;;;;;;32.85;7.60;;;11.10;99.90;;;10.94;77.05;101607.16;5073632;28;20048;-69
2020/12/01 08:36:24;;;;;;;32.30;7.30;;;11.00;99.90;;;10.97;76.89;101610.72;5073912;28;20044;-70
2020/12/01 08:39:11;;;;;;;38.17;8.15;;;11.00;99.90;;;11.02;76.69;101627.50;5073547;28;20036;-69
2020/12/01 08:41:48;;;;;;;34.35;8.05;;;11.00;99.90;;;11.07;76.36;101633.69;5073568;28;20044;-69
2020/12/01 08:44:29;;;;;;;28.63;7.45;;;11.10;99.90;;;11.12;76.32;101634.63;5073576;28;20402;-70
2020/12/01 08:46:57;;;;;;;;;;;11.10;99.90;;;11.14;76.42;101630.22;5074062;28;20490;-70
2020/12/01 08:49:41;;;;;;;26.23;7.40;;;11.10;99.90;;;11.10;76.82;101641.66;5073704;28;20431;-70
2020/12/01 08:52:37;;;;;;;30.35;7.50;;;11.10;99.90;;;11.11;76.62;101626.66;5073708;28;20136;-70
2020/12/01 08:55:25;;;;;;;30.33;8.30;;;11.10;99.90;;;11.20;76.36;101658.47;5073599;28;20117;-70
2020/12/01 08:58:04;;;;;;;29.40;7.93;;;11.20;99.90;;;11.19;76.23;101652.28;5073530;28;20051;-70
2020/12/01 09:00:34;;;;;;;29.60;7.85;;;11.20;99.90;;;11.25;76.03;101644.38;5073168;28;20545;-69
2020/12/01 09:03:10;;;;;;;34.92;8.38;;;11.20;99.90;;;11.27;75.96;101650.56;5073037;28;20068;-70
2020/12/01 09:05:47;;;;;;;36.50;8.52;;;11.20;99.90;;;11.19;75.70;101636.41;5073049;28;20051;-70
2020/12/01 09:11:40;;;;;;;30.58;7.18;;;11.20;99.90;;;11.20;74.01;101662.03;5088390;28;20075;-70
2020/12/01 09:14:19;;;;;;;36.35;8.00;;;11.20;99.90;;;11.32;73.36;101663.84;5073001;28;20098;-69
2020/12/01 09:16:57;;;;;;;38.65;8.50;;;11.30;99.90;;;11.28;72.43;101651.47;5071975;28;20067;-69
2020/12/01 09:19:54;;;;;;;28.52;7.28;;;11.30;99.90;;;11.38;71.98;101666.53;5072763;28;20037;-69
2020/12/01 09:22:27;;;;;;;31.17;7.50;;;11.40;99.90;;;11.50;71.77;101672.75;5073040;28;20045;-70
2020/12/01 09:25:08;;;;;;;29.85;8.43;;;11.50;99.90;;;10.82;71.48;101537.38;5072645;28;20440;-69
2020/12/01 09:27:36;;;;;;;32.88;8.70;;;11.50;99.90;;;11.57;71.11;101682.53;5072751;28;20044;-70
2020/12/01 09:30:05;;;;;;;27.02;7.35;;;11.50;99.90;;;11.64;70.71;101673.72;5072480;28;20072;-70
2020/12/01 09:32:33;;;;;;;29.70;7.30;;;11.60;99.90;;;11.43;70.27;101652.44;5071364;28;20409;-69
2020/12/01 09:35:02;;;;;;;33.35;7.38;;;11.60;99.90;;;11.12;70.13;101612.53;5072662;28;20131;-70
2020/12/01 09:37:29;;;;;;;26.27;7.65;;;11.60;99.90;;;11.55;70.50;101686.03;5072758;28;20444;-69
2020/12/01 09:39:57;;;;;;;31.92;8.18;;;11.60;99.90;;;11.53;70.35;101701.03;5072623;28;20101;-70
2020/12/01 09:42:27;;;;;;;25.13;7.38;;;11.50;99.90;;;11.46;70.41;101672.72;5072685;28;20044;-69
2020/12/01 09:45:05;;;;;;;25.13;7.72;;;11.60;99.90;;;11.65;70.56;101702.00;5072662;28;20040;-69
2020/12/01 09:47:38;;;;;;;37.03;8.18;;;11.70;99.90;;;11.79;70.57;101699.41;5072601;28;20056;-70
2020/12/01 09:50:10;;;;;;;37.53;7.93;;;11.70;99.90;;;11.84;70.56;101705.66;5072292;28;20551;-69
2020/12/01 09:52:52;;;;;;;39.25;8.15;;;11.80;99.90;;;11.90;70.13;101705.66;5072543;28;20055;-70
2020/12/01 09:55:34;;;;;;;29.25;7.63;;;11.90;99.90;;;11.93;69.59;101705.66;5072096;28;20047;-70
2020/12/01 09:58:09;;;;;;;27.13;7.90;;;11.90;99.90;;;11.83;68.80;101705.66;5072258;28;20047;-70
2020/12/01 10:09:01;;;;;;;30.83;7.85;;;11.90;99.90;;;11.99;69.85;101718.94;5072127;28;20498;-70
2020/12/01 10:12:00;;;;;;;35.22;8.52;;;11.90;99.90;;;12.20;69.67;101724.31;5072352;28;20040;-69
2020/12/01 10:25:51;;;;;;;43.75;9.00;;;12.10;99.90;;;12.15;69.25;101730.50;5075032;28;20052;-70
2020/12/01 10:34:20;;;;;;;34.22;7.63;;;12.20;99.90;;;12.15;67.74;101714.56;5077344;28;20150;-69
2020/12/01 10:36:51;;;;;;;33.80;7.60;;;12.20;99.90;;;12.37;66.70;101722.56;5076091;28;20478;-70
2020/12/01 10:39:20;;;;;;;33.03;9.07;;;12.40;99.90;;;12.41;64.91;101764.16;5076052;28;20044;-70
2020/12/01 10:41:50;;;;;;;33.10;9.07;;;12.50;99.90;;;12.55;65.24;101735.88;5076162;28;20481;-70
2020/12/01 10:44:19;;;;;;;31.77;7.72;;;12.50;99.90;;;12.58;64.93;101722.59;5076031;28;20127;-70
2020/12/01 10:46:49;;;;;;;34.13;7.90;;;12.70;99.90;;;12.65;63.35;101719.09;5075666;28;20040;-70
2020/12/01 10:49:18;;;;;;;26.95;7.95;;;12.80;99.90;;;12.63;63.38;101704.03;5075764;28;20057;-70
2020/12/01 10:51:48;;;;;;;31.77;8.15;;;12.80;99.90;;;12.94;63.41;101716.44;5075775;28;20051;-70
2020/12/01 10:54:16;;;;;;;27.98;6.82;;;13.00;99.90;;;13.06;62.88;101736.81;5075538;28;20433;-70
2020/12/01 10:56:47;;;;;;;39.30;8.77;;;13.20;99.90;;;13.04;63.09;101725.31;5075702;28;20083;-70
2020/12/01 10:59:15;;;;;;;;;;;13.10;99.90;;;13.07;63.54;101742.13;5076149;28;20049;-70
2020/12/01 11:01:43;;;;;;;32.67;8.80;;;13.10;99.90;;;13.02;62.86;101725.28;5075522;28;20015;-70
2020/12/01 11:04:11;;;;;;;31.80;8.68;;;13.20;99.90;;;13.15;63.03;101735.03;5075357;28;20048;-70
2020/12/01 11:06:40;;;;;;;33.30;8.05;;;13.20;99.90;;;13.02;63.08;101716.44;5075094;28;20040;-70